Terminal Aerodrome Forecast
Issued by NWS

Home | Current Version | Previous Version | Text Only | Print | Product List | Glossary On
Versions: 1 2 3 4 5 6 7 8 9 10 11 12 13 14 15 16 17 18 19 20
000
FTUS44 KLZK 171600 AAB
TAFLIT
TAF AMD
KLIT 171612Z 1716/1812 05005KT P6SM SCT008 BKN018
      TEMPO 1716/1718 OVC025
     FM171800 10005KT P6SM SCT025 BKN050
     FM180100 13005KT P6SM BKN030
      TEMPO 1809/1812 5SM -RA BKN020=

USA.gov is the U.S. government's official web portal to all federal, state and local government web resources and services.